Time;durP1;ratioP1;P1;durP2;ratioP2;P2;SDS_P1;SDS_P2;PMS_P1;PMS_P2;Temp;Humidity;BMP_temperature;BMP_pressure;BME280_temperature;BME280_humidity;BME280_pressure;Samples;Min_cycle;Max_cycle;Signal;HPM_P1;HPM_P2
2023/10/30 00:01:15;;;;;;;1.70;1.20;;;;;;;11.30;100.00;95358.06;5049124;27;105581;-83
2023/10/30 00:03:44;;;;;;;1.20;1.10;;;;;;;11.38;100.00;95358.25;5049780;27;101889;-83
2023/10/30 00:06:11;;;;;;;1.47;1.03;;;;;;;11.19;100.00;95360.03;5049925;27;105055;-83
2023/10/30 00:08:38;;;;;;;1.47;0.90;;;;;;;11.14;100.00;95361.91;5049218;27;104344;-83
2023/10/30 00:11:05;;;;;;;1.73;1.43;;;;;;;11.17;100.00;95356.06;5049783;27;101876;-83
2023/10/30 00:13:32;;;;;;;1.70;1.17;;;;;;;11.19;100.00;95364.53;5049707;27;105229;-82
2023/10/30 00:16:00;;;;;;;0.87;0.87;;;;;;;11.16;100.00;95370.41;5049073;27;105243;-82
2023/10/30 00:18:28;;;;;;;1.90;1.30;;;;;;;11.25;100.00;95360.75;5049919;27;102014;-83
2023/10/30 00:20:55;;;;;;;1.73;1.07;;;;;;;11.11;100.00;95357.94;5052643;27;105194;-83
2023/10/30 00:23:22;;;;;;;1.70;1.40;;;;;;;11.17;100.00;95358.72;5049563;27;102503;-83
2023/10/30 00:25:49;;;;;;;2.30;1.20;;;;;;;11.18;100.00;95362.97;5050890;27;102561;-83
2023/10/30 00:28:17;;;;;;;1.40;1.30;;;;;;;11.13;100.00;95363.00;5049025;27;105234;-81
2023/10/30 00:30:44;;;;;;;1.10;1.10;;;;;;;11.21;100.00;95373.03;5049490;27;101894;-82
2023/10/30 00:33:13;;;;;;;1.40;1.30;;;;;;;11.26;100.00;95362.34;5049291;27;105344;-80
2023/10/30 00:35:40;;;;;;;1.20;1.10;;;;;;;11.25;100.00;95363.44;5049989;27;103075;-80
2023/10/30 00:38:06;;;;;;;1.20;1.10;;;;;;;11.30;100.00;95366.03;5049318;27;102098;-80
2023/10/30 00:40:33;;;;;;;1.20;1.10;;;;;;;11.19;100.00;95353.91;5050986;27;102527;-80
2023/10/30 00:43:00;;;;;;;1.10;1.00;;;;;;;11.17;100.00;95372.03;5052119;27;104261;-80
2023/10/30 00:45:27;;;;;;;1.23;1.13;;;;;;;11.00;100.00;95376.91;5049345;27;105074;-80
2023/10/30 00:47:54;;;;;;;2.33;1.17;;;;;;;10.98;100.00;95363.09;5048652;27;105745;-80
2023/10/30 00:50:23;;;;;;;1.30;1.00;;;;;;;10.98;100.00;95369.22;5049429;27;101909;-80
2023/10/30 00:52:50;;;;;;;1.43;1.20;;;;;;;10.97;100.00;95362.28;5049268;27;105616;-80
2023/10/30 00:55:17;;;;;;;1.37;1.27;;;;;;;10.84;100.00;95365.59;5048055;27;105590;-80
2023/10/30 00:57:46;;;;;;;1.13;1.03;;;;;;;10.79;100.00;95370.16;5049643;27;101860;-80
2023/10/30 01:00:15;;;;;;;1.87;1.10;;;;;;;10.77;100.00;95377.59;5049186;27;104790;-80
2023/10/30 01:02:43;;;;;;;1.70;1.30;;;;;;;10.61;100.00;95366.28;5048452;27;105329;-80
2023/10/30 01:05:10;;;;;;;2.40;1.40;;;;;;;10.56;100.00;95361.00;5052565;27;102018;-80
2023/10/30 01:07:38;;;;;;;1.87;1.27;;;;;;;10.60;100.00;95382.50;5047970;27;105197;-80
2023/10/30 01:10:06;;;;;;;1.30;1.20;;;;;;;10.36;100.00;95377.03;5049094;27;101985;-80
2023/10/30 01:12:33;;;;;;;1.73;1.47;;;;;;;10.34;100.00;95383.69;5048751;27;104951;-80
2023/10/30 01:15:00;;;;;;;2.23;1.80;;;;;;;10.35;100.00;95388.72;5048425;27;104508;-80
2023/10/30 01:17:26;;;;;;;1.30;1.20;;;;;;;10.41;100.00;95378.88;5048963;27;101753;-80
2023/10/30 01:19:53;;;;;;;1.53;1.43;;;;;;;10.19;100.00;95376.56;5049007;27;105432;-80
2023/10/30 01:22:20;;;;;;;1.20;1.10;;;;;;;10.20;100.00;95380.81;5048176;27;105464;-80
2023/10/30 01:24:49;;;;;;;1.30;1.20;;;;;;;10.10;100.00;95380.88;5048987;27;102353;-80
2023/10/30 01:27:16;;;;;;;1.93;1.50;;;;;;;10.12;100.00;95380.59;5051548;27;105964;-80
2023/10/30 01:29:42;;;;;;;1.83;1.67;;;;;;;10.22;100.00;95372.59;5048965;27;102000;-80
2023/10/30 01:32:09;;;;;;;1.70;1.60;;;;;;;10.19;100.00;95359.88;5048371;27;105703;-80
2023/10/30 01:34:37;;;;;;;1.53;1.10;;;;;;;10.06;100.00;95363.88;5048263;27;105446;-80
2023/10/30 01:37:04;;;;;;;1.87;1.47;;;;;;;10.02;100.00;95362.81;5048568;27;102128;-81
2023/10/30 01:39:32;;;;;;;1.53;1.40;;;;;;;10.02;100.00;95365.47;5049014;27;105481;-81
2023/10/30 01:42:01;;;;;;;1.53;1.43;;;;;;;9.90;100.00;95361.50;5048223;27;105390;-81
2023/10/30 01:44:28;;;;;;;1.50;1.40;;;;;;;9.80;100.00;95361.53;5048723;27;101897;-81
2023/10/30 01:46:56;;;;;;;2.23;1.37;;;;;;;9.76;100.00;95368.47;5048533;27;105311;-81
2023/10/30 01:49:23;;;;;;;1.97;1.77;;;;;;;9.74;100.00;95357.31;5052290;27;101820;-81
2023/10/30 01:51:50;;;;;;;1.30;1.30;;;;;;;9.78;100.00;95348.56;5048588;27;105425;-81
2023/10/30 01:54:17;;;;;;;1.03;1.03;;;;;;;9.62;100.00;95368.25;5047752;27;104431;-81
2023/10/30 01:56:45;;;;;;;1.77;1.30;;;;;;;9.69;100.00;95373.25;5047740;27;102014;-80
2023/10/30 01:59:13;;;;;;;2.93;1.30;;;;;;;9.67;100.00;95351.50;5048416;27;105349;-79
2023/10/30 02:01:41;;;;;;;1.50;1.40;;;;;;;9.75;100.00;95346.44;5047711;27;105917;-79
2023/10/30 02:04:08;;;;;;;1.70;1.30;;;;;;;9.77;100.00;95360.22;5048184;27;101913;-79
2023/10/30 02:06:35;;;;;;;1.77;1.27;;;;;;;9.68;100.00;95356.53;5048175;27;104920;-79
2023/10/30 02:09:02;;;;;;;2.03;1.83;;;;;;;9.69;100.00;95352.81;5051095;27;105330;-79
2023/10/30 02:11:29;;;;;;;1.93;1.53;;;;;;;9.67;100.00;95351.50;5048122;27;104998;-79
2023/10/30 02:13:56;;;;;;;2.23;1.27;;;;;;;9.68;100.00;95345.13;5047495;27;105318;-79
2023/10/30 02:16:24;;;;;;;1.53;1.43;;;;;;;9.48;100.00;95342.53;5048298;27;101932;-79
2023/10/30 02:18:51;;;;;;;3.93;1.50;;;;;;;9.42;100.00;95336.41;5049163;27;104847;-79
2023/10/30 02:21:18;;;;;;;3.27;1.50;;;;;;;9.45;100.00;95358.97;5050875;27;105414;-79
2023/10/30 02:23:45;;;;;;;1.60;1.50;;;;;;;9.25;100.00;95365.09;5051730;27;101976;-79
2023/10/30 02:26:14;;;;;;;1.73;1.63;;;;;;;9.17;100.00;95359.53;5051577;27;104978;-79
2023/10/30 02:28:41;;;;;;;2.57;1.70;;;;;;;9.27;100.00;95357.66;5050814;27;105401;-79
2023/10/30 02:31:07;;;;;;;2.10;1.90;;;;;;;9.32;100.00;95370.16;5054928;27;101910;-79
2023/10/30 02:33:34;;;;;;;3.63;2.17;;;;;;;9.33;100.00;95361.13;5050786;27;105331;-83
2023/10/30 02:36:01;;;;;;;2.20;1.90;;;;;;;9.28;100.00;95353.94;5051336;27;102084;-79
2023/10/30 02:38:28;;;;;;;2.20;1.87;;;;;;;9.16;100.00;95363.25;5051332;27;105356;-82
2023/10/30 02:40:55;;;;;;;2.63;1.90;;;;;;;9.15;100.00;95357.16;5050834;27;105387;-82
2023/10/30 02:43:23;;;;;;;2.90;2.00;;;;;;;9.10;100.00;95359.78;5051117;27;101919;-82
2023/10/30 02:45:51;;;;;;;2.77;2.30;;;;;;;8.96;100.00;95365.91;5051239;27;105414;-82
2023/10/30 02:48:18;;;;;;;5.07;2.57;;;;;;;9.03;100.00;95359.28;5050319;27;105991;-81
2023/10/30 02:50:45;;;;;;;2.93;2.37;;;;;;;9.08;100.00;95355.81;5051092;27;101952;-81
2023/10/30 02:53:12;;;;;;;2.47;2.27;;;;;;;9.08;100.00;95358.47;5053900;27;105031;-81
2023/10/30 02:55:41;;;;;;;2.90;2.60;;;;;;;8.79;100.00;95363.47;5050722;27;102008;-83
2023/10/30 02:58:09;;;;;;;2.37;2.17;;;;;;;8.93;100.00;95348.66;5050907;27;105230;-83
2023/10/30 03:00:37;;;;;;;2.47;2.30;;;;;;;8.86;100.00;95347.31;5050798;27;105551;-83
2023/10/30 03:03:04;;;;;;;2.07;1.90;;;;;;;8.89;100.00;95344.94;5050770;27;101971;-81
2023/10/30 03:05:31;;;;;;;2.93;2.40;;;;;;;8.75;100.00;95343.88;5050861;27;104850;-82
2023/10/30 03:07:58;;;;;;;3.20;2.47;;;;;;;8.87;100.00;95349.72;5051605;27;102724;-82
2023/10/30 03:10:25;;;;;;;3.47;2.30;;;;;;;8.87;100.00;95348.91;5050900;27;102022;-82
2023/10/30 03:12:52;;;;;;;2.73;2.30;;;;;;;8.60;100.00;95373.00;5050862;27;105017;-82
2023/10/30 03:15:19;;;;;;;4.50;2.80;;;;;;;8.50;100.00;95359.75;5053509;27;105565;-82
2023/10/30 03:17:47;;;;;;;3.00;2.80;;;;;;;8.51;100.00;95357.91;5050439;27;105357;-82
2023/10/30 03:20:14;;;;;;;5.37;2.40;;;;;;;8.52;100.00;95370.09;5050025;27;105285;-82
2023/10/30 03:22:41;;;;;;;4.40;2.77;;;;;;;8.61;100.00;95365.88;5050549;27;102001;-82
2023/10/30 03:25:09;;;;;;;3.37;2.83;;;;;;;8.65;100.00;95361.63;5050606;27;104010;-82
2023/10/30 03:27:36;;;;;;;4.13;2.87;;;;;;;8.69;100.00;95360.84;5049795;27;105415;-82
2023/10/30 03:30:03;;;;;;;2.97;2.50;;;;;;;8.63;100.00;95374.34;5050172;27;101841;-81
2023/10/30 03:32:34;;;;;;;2.67;2.47;;;;;;;8.40;100.00;95372.97;5050046;27;103755;-82
2023/10/30 03:35:03;;;;;;;3.70;2.40;;;;;;;8.52;100.00;95375.38;5049826;27;105372;-82
2023/10/30 03:37:30;;;;;;;2.60;2.40;;;;;;;8.50;100.00;95366.91;5053643;27;102113;-82
2023/10/30 03:39:58;;;;;;;2.43;2.27;;;;;;;8.52;100.00;95367.44;5049620;27;105380;-82
2023/10/30 03:42:25;;;;;;;2.70;2.50;;;;;;;8.53;100.00;95366.38;5050228;27;101942;-82
2023/10/30 03:44:52;;;;;;;2.77;2.20;;;;;;;8.29;100.00;95365.25;5050190;27;103958;-82
2023/10/30 03:47:19;;;;;;;3.77;2.50;;;;;;;8.33;100.00;95361.00;5049384;27;105096;-82
2023/10/30 03:49:46;;;;;;;3.13;2.70;;;;;;;8.39;100.00;95365.28;5050071;27;101988;-78
2023/10/30 03:52:14;;;;;;;2.73;2.30;;;;;;;8.45;100.00;95370.31;5050352;27;104862;-78
2023/10/30 03:54:41;;;;;;;3.60;2.50;;;;;;;8.55;100.00;95364.25;5049832;27;105326;-78
2023/10/30 03:57:09;;;;;;;2.80;2.60;;;;;;;8.59;100.00;95357.38;5052999;27;102281;-78
2023/10/30 03:59:36;;;;;;;4.40;2.57;;;;;;;8.62;100.00;95357.63;5049128;27;105126;-79
2023/10/30 04:02:03;;;;;;;2.53;2.20;;;;;;;8.59;100.00;95354.72;5049734;27;101999;-79
2023/10/30 04:04:30;;;;;;;3.47;2.20;;;;;;;8.04;100.00;95359.84;5051203;27;102649;-79
2023/10/30 04:06:58;;;;;;;2.33;2.13;;;;;;;8.06;100.00;95360.38;5049114;27;105882;-79
2023/10/30 04:09:26;;;;;;;2.37;2.17;;;;;;;8.09;100.00;95362.50;5049796;27;101947;-78
2023/10/30 04:11:53;;;;;;;2.20;2.03;;;;;;;8.14;100.00;95362.53;5049816;27;105470;-79
2023/10/30 04:14:20;;;;;;;3.60;2.77;;;;;;;8.23;100.00;95369.72;5049053;27;105430;-79
2023/10/30 04:16:47;;;;;;;2.60;2.33;;;;;;;8.31;100.00;95373.72;5049666;27;101935;-79
2023/10/30 04:19:14;;;;;;;2.70;2.27;;;;;;;8.40;100.00;95366.88;5052564;27;105661;-79
2023/10/30 04:21:41;;;;;;;2.47;2.27;;;;;;;8.36;100.00;95366.59;5049449;27;101876;-79
2023/10/30 04:24:08;;;;;;;3.30;2.20;;;;;;;8.21;100.00;95358.63;5049598;27;105583;-79
2023/10/30 04:26:37;;;;;;;2.73;2.53;;;;;;;8.23;100.00;95382.19;5049163;27;105203;-79
2023/10/30 04:29:04;;;;;;;3.07;2.80;;;;;;;8.37;100.00;95384.09;5049439;27;102368;-81
2023/10/30 04:31:31;;;;;;;4.53;3.03;;;;;;;8.41;100.00;95374.53;5049483;27;105766;-81
2023/10/30 04:33:57;;;;;;;3.90;3.07;;;;;;;8.45;100.00;95370.31;5048615;27;104049;-80
2023/10/30 04:36:25;;;;;;;2.90;2.70;;;;;;;8.46;100.00;95371.13;5049663;27;101888;-80
2023/10/30 04:38:52;;;;;;;2.87;2.60;;;;;;;8.42;100.00;95362.91;5049296;27;105201;-79
2023/10/30 04:41:19;;;;;;;3.43;3.10;;;;;;;8.28;100.00;95350.44;5051364;27;105381;-79
2023/10/30 04:43:47;;;;;;;2.93;2.70;;;;;;;8.35;100.00;95348.31;5049116;27;106201;-79
2023/10/30 04:46:14;;;;;;;3.73;2.87;;;;;;;8.22;100.00;95333.72;5048773;27;105115;-80
2023/10/30 04:48:41;;;;;;;2.63;2.30;;;;;;;8.25;100.00;95337.69;5049245;27;102023;-79
2023/10/30 04:51:08;;;;;;;2.50;2.30;;;;;;;8.23;100.00;95329.22;5049333;27;105319;-79
2023/10/30 04:53:34;;;;;;;2.43;2.23;;;;;;;8.11;100.00;95331.25;5048823;27;105148;-78
2023/10/30 04:56:03;;;;;;;2.40;2.20;;;;;;;8.05;100.00;95342.88;5048825;27;101980;-78
2023/10/30 04:58:30;;;;;;;3.43;3.10;;;;;;;8.15;100.00;95341.09;5048906;27;105534;-78
2023/10/30 05:00:59;;;;;;;4.53;3.70;;;;;;;8.27;100.00;95348.81;5048369;27;105353;-80
2023/10/30 05:03:25;;;;;;;3.50;3.20;;;;;;;8.32;100.00;95362.06;5052677;27;101920;-78
2023/10/30 05:05:52;;;;;;;3.40;3.10;;;;;;;8.37;100.00;95347.00;5048544;27;105372;-82
2023/10/30 05:08:20;;;;;;;3.27;2.90;;;;;;;8.45;100.00;95332.47;5049118;27;101916;-81
2023/10/30 05:10:47;;;;;;;4.13;2.93;;;;;;;8.40;100.00;95338.53;5049023;27;105351;-77
2023/10/30 05:13:14;;;;;;;3.70;3.00;;;;;;;8.40;100.00;95329.78;5048377;27;105669;-77
2023/10/30 05:15:41;;;;;;;3.80;3.10;;;;;;;8.35;100.00;95329.78;5049094;27;102139;-77
2023/10/30 05:18:09;;;;;;;4.50;3.17;;;;;;;8.21;100.00;95326.03;5048934;27;105863;-81
2023/10/30 05:20:36;;;;;;;3.63;3.20;;;;;;;8.20;100.00;95324.44;5048114;27;104083;-82
2023/10/30 05:23:03;;;;;;;3.30;3.00;;;;;;;8.27;100.00;95336.38;5048898;27;102007;-79
2023/10/30 05:25:31;;;;;;;3.63;2.60;;;;;;;8.08;100.00;95342.38;5052705;27;104937;-81
2023/10/30 05:27:58;;;;;;;4.67;2.73;;;;;;;8.12;100.00;95333.66;5049338;27;102042;-81
2023/10/30 05:30:25;;;;;;;3.13;2.90;;;;;;;8.19;100.00;95344.00;5049666;27;105604;-80
2023/10/30 05:32:52;;;;;;;2.90;2.70;;;;;;;8.19;100.00;95333.41;5048592;27;105201;-80
2023/10/30 05:35:20;;;;;;;3.50;3.20;;;;;;;8.11;100.00;95326.78;5049516;27;102079;-76
2023/10/30 05:37:48;;;;;;;3.47;2.63;;;;;;;8.00;100.00;95325.16;5049560;27;105417;-76
2023/10/30 05:40:16;;;;;;;2.70;2.50;;;;;;;8.02;100.00;95328.31;5048913;27;105001;-76
2023/10/30 05:42:42;;;;;;;2.80;2.60;;;;;;;8.03;100.00;95329.94;5049253;27;101908;-76
2023/10/30 05:45:10;;;;;;;3.20;2.50;;;;;;;7.96;100.00;95334.66;5049520;27;103964;-75
2023/10/30 05:47:37;;;;;;;3.10;2.70;;;;;;;8.06;100.00;95333.88;5052253;27;105826;-75
2023/10/30 05:50:05;;;;;;;3.20;2.90;;;;;;;8.05;100.00;95346.34;5049429;27;105305;-75
2023/10/30 05:52:33;;;;;;;4.87;2.90;;;;;;;7.98;100.00;95355.59;5049543;27;105677;-78
2023/10/30 05:55:00;;;;;;;3.60;2.90;;;;;;;7.98;100.00;95343.16;5052775;27;101928;-82
2023/10/30 05:57:27;;;;;;;3.53;2.87;;;;;;;7.99;100.00;95334.16;5052691;27;105242;-79
2023/10/30 05:59:54;;;;;;;3.63;3.03;;;;;;;7.96;100.00;95332.00;5052122;27;105057;-78
2023/10/30 06:02:21;;;;;;;3.93;2.90;;;;;;;7.83;100.00;95347.56;5052724;27;102130;-84
2023/10/30 06:04:48;;;;;;;14.07;7.23;;;;;;;7.81;100.00;95353.09;5052828;27;103952;-84
2023/10/30 06:07:15;;;;;;;14.47;8.33;;;;;;;7.84;100.00;95349.97;5055595;27;105579;-84
2023/10/30 06:09:45;;;;;;;14.50;8.43;;;;;;;7.72;100.00;95359.97;5052355;27;105607;-84
2023/10/30 06:12:12;;;;;;;15.67;8.27;;;;;;;7.74;100.00;95362.38;5051182;27;105661;-82
2023/10/30 06:14:39;;;;;;;10.57;5.93;;;;;;;7.78;100.00;95358.13;5053272;27;101841;-82
2023/10/30 06:17:06;;;;;;;6.23;4.93;;;;;;;7.68;100.00;95368.69;5051309;27;105210;-82
2023/10/30 06:19:33;;;;;;;6.23;5.53;;;;;;;7.70;100.00;95363.91;5052122;27;102880;-82
2023/10/30 06:22:00;;;;;;;5.33;4.50;;;;;;;7.82;100.00;95372.44;5051601;27;101933;-82
2023/10/30 06:24:27;;;;;;;3.87;3.07;;;;;;;7.73;100.00;95366.03;5051533;27;105784;-82
2023/10/30 06:26:55;;;;;;;3.47;3.17;;;;;;;7.73;100.00;95368.69;5049923;27;105902;-82
2023/10/30 06:29:22;;;;;;;3.20;2.60;;;;;;;7.76;100.00;95362.88;5054427;27;102352;-82
2023/10/30 06:31:49;;;;;;;4.70;2.70;;;;;;;7.84;100.00;95362.38;5050931;27;105616;-82
2023/10/30 06:34:16;;;;;;;3.77;2.77;;;;;;;7.78;100.00;95360.78;5051386;27;101842;-82
2023/10/30 06:36:45;;;;;;;3.00;2.70;;;;;;;7.78;100.00;95366.88;5051351;27;104102;-82
2023/10/30 06:39:13;;;;;;;5.13;3.13;;;;;;;7.74;100.00;95368.44;5050322;27;105430;-82
2023/10/30 06:41:40;;;;;;;3.30;3.00;;;;;;;7.74;100.00;95368.44;5051310;27;101914;-82
2023/10/30 06:44:09;;;;;;;2.83;2.63;;;;;;;7.82;100.00;95369.81;5051355;27;105412;-82
2023/10/30 06:46:38;;;;;;;4.63;2.87;;;;;;;7.84;100.00;95370.31;5050632;27;105502;-82
2023/10/30 06:49:05;;;;;;;5.63;4.40;;;;;;;7.91;100.00;95368.25;5051298;27;101840;-82
2023/10/30 06:51:33;;;;;;;3.33;2.80;;;;;;;8.10;100.00;95372.84;5053822;27;104960;-82
2023/10/30 06:54:01;;;;;;;3.27;2.73;;;;;;;8.12;100.00;95381.31;5051032;27;101934;-82
2023/10/30 06:56:28;;;;;;;5.13;2.80;;;;;;;8.22;100.00;95373.44;5050625;27;105136;-82
2023/10/30 06:58:55;;;;;;;6.27;3.33;;;;;;;8.51;100.00;95357.91;5051717;27;102703;-82
2023/10/30 07:01:23;;;;;;;3.00;2.80;;;;;;;8.48;100.00;95379.59;5050957;27;101912;-82
2023/10/30 07:03:50;;;;;;;3.43;2.93;;;;;;;8.62;100.00;95386.00;5050536;27;105078;-82
2023/10/30 07:06:17;;;;;;;3.13;2.57;;;;;;;8.71;100.00;95390.53;5050002;27;105604;-82
2023/10/30 07:08:44;;;;;;;2.80;2.60;;;;;;;8.74;100.00;95386.56;5050607;27;101940;-82
2023/10/30 07:11:12;;;;;;;2.73;2.53;;;;;;;8.95;100.00;95388.94;5050834;27;104349;-82
2023/10/30 07:13:39;;;;;;;4.07;2.60;;;;;;;9.05;100.00;95382.88;5053475;27;105137;-82
2023/10/30 07:16:07;;;;;;;3.73;2.17;;;;;;;9.06;100.00;95379.94;5050659;27;105244;-82
2023/10/30 07:18:36;;;;;;;7.30;2.80;;;;;;;8.99;100.00;95383.94;5049825;27;105700;-83
2023/10/30 07:21:03;;;;;;;3.57;2.60;;;;;;;9.14;100.00;95381.28;5050606;27;101837;-83
2023/10/30 07:23:29;;;;;;;3.77;2.90;;;;;;;9.22;100.00;95381.53;5050451;27;104416;-87
2023/10/30 07:25:56;;;;;;;5.70;3.07;;;;;;;9.26;100.00;95368.56;5051388;27;102900;-82
2023/10/30 07:28:23;;;;;;;4.77;3.40;;;;;;;9.25;100.00;95369.59;5050446;27;101872;-83
2023/10/30 07:30:50;;;;;;;4.57;3.80;;;;;;;9.07;100.00;95367.50;5050339;27;105498;-80
2023/10/30 07:33:17;;;;;;;4.33;3.63;;;;;;;9.07;100.00;95372.78;5049826;27;105470;-83
2023/10/30 07:35:46;;;;;;;3.80;3.40;;;;;;;9.38;100.00;95369.06;5053859;27;101818;-83
2023/10/30 07:38:13;;;;;;;3.97;3.57;;;;;;;9.59;100.00;95366.09;5049623;27;105297;-83
2023/10/30 07:40:40;;;;;;;4.43;3.37;;;;;;;9.68;100.00;95369.00;5050240;27;101929;-83
2023/10/30 07:43:07;;;;;;;4.90;3.40;;;;;;;9.94;100.00;95370.53;5051793;27;102582;-83
2023/10/30 07:45:40;;;;;;;3.77;3.47;;;;;;;10.12;100.00;95354.84;5049456;27;105851;-83
2023/10/30 07:48:07;;;;;;;3.43;3.13;;;;;;;10.12;100.00;95356.69;5050120;27;101868;-83
2023/10/30 07:50:37;;;;;;;3.50;3.20;;;;;;;10.20;100.00;95350.81;5050339;27;105537;-83
2023/10/30 07:53:05;;;;;;;6.00;3.63;;;;;;;10.33;100.00;95350.22;5049440;27;105713;-83
2023/10/30 07:55:33;;;;;;;3.83;3.20;;;;;;;10.32;100.00;95353.94;5049775;27;102059;-83
2023/10/30 07:58:00;;;;;;;4.03;3.63;;;;;;;10.45;100.00;95345.34;5052821;27;105123;-83
2023/10/30 08:00:26;;;;;;;7.83;3.57;;;;;;;10.43;100.00;95337.69;5050069;27;102062;-83
2023/10/30 08:02:53;;;;;;;6.30;3.80;;;;;;;10.67;100.00;95351.06;5049816;27;105041;-83
2023/10/30 08:05:23;;;;;;;4.40;3.53;;;;;;;10.84;100.00;95346.19;5049227;27;104522;-83
2023/10/30 08:07:50;;;;;;;4.40;3.20;;;;;;;10.84;100.00;95333.69;5049914;27;102128;-83
2023/10/30 08:10:18;;;;;;;4.23;3.30;;;;;;;11.03;100.00;95337.28;5049761;27;104907;-83
2023/10/30 08:12:45;;;;;;;3.20;2.90;;;;;;;11.17;100.00;95332.88;5049117;27;105780;-83
2023/10/30 08:15:12;;;;;;;7.03;3.20;;;;;;;11.25;100.00;95331.50;5049625;27;101901;-81
2023/10/30 08:17:39;;;;;;;5.07;3.17;;;;;;;11.05;100.00;95326.34;5051282;27;105303;-80
2023/10/30 08:20:09;;;;;;;3.57;3.00;;;;;;;11.01;100.00;95327.97;5049497;27;101993;-80
2023/10/30 08:22:37;;;;;;;4.67;3.20;;;;;;;11.19;100.00;95311.31;5049245;27;105178;-81
2023/10/30 08:25:04;;;;;;;4.23;3.20;;;;;;;10.97;100.00;95313.66;5050323;27;102850;-81
2023/10/30 08:27:33;;;;;;;4.93;3.13;;;;;;;11.01;100.00;95309.38;5049452;27;102037;-81
2023/10/30 08:30:00;;;;;;;5.63;4.30;;;;;;;11.56;100.00;95311.50;5049405;27;105758;-81
2023/10/30 08:32:27;;;;;;;4.33;3.10;;;;;;;11.81;100.00;95314.72;5048888;27;104314;-81
2023/10/30 08:34:56;;;;;;;5.83;3.50;;;;;;;12.24;100.00;95310.19;5050784;27;101986;-81
2023/10/30 08:37:23;;;;;;;6.83;3.30;;;;;;;12.41;100.00;95305.16;5049497;27;105510;-81
2023/10/30 08:39:50;;;;;;;6.40;3.33;;;;;;;12.81;100.00;95305.38;5052262;27;105596;-81
2023/10/30 08:42:17;;;;;;;3.70;3.27;;;;;;;13.16;100.00;95304.06;5050718;27;102674;-81
2023/10/30 08:44:46;;;;;;;5.00;3.20;;;;;;;13.23;100.00;95288.44;5048658;27;105310;-81
2023/10/30 08:47:14;;;;;;;4.70;3.00;;;;;;;13.24;100.00;95290.06;5049170;27;102005;-81
2023/10/30 08:49:42;;;;;;;2.57;2.37;;;;;;;13.21;100.00;95282.63;5049134;27;104882;-81
2023/10/30 08:52:09;;;;;;;3.40;2.50;;;;;;;13.28;100.00;95281.16;5048495;27;105244;-81
2023/10/30 08:54:36;;;;;;;3.07;2.63;;;;;;;13.60;100.00;95278.44;5049092;27;102199;-81
2023/10/30 08:57:03;;;;;;;2.33;2.13;;;;;;;13.80;100.00;95278.03;5049953;27;102545;-81
2023/10/30 08:59:30;;;;;;;8.10;2.60;;;;;;;13.85;100.00;95279.84;5048273;27;105421;-81
2023/10/30 09:01:58;;;;;;;8.07;3.20;;;;;;;14.03;100.00;95277.06;5052503;27;102065;-81
2023/10/30 09:04:25;;;;;;;3.53;2.33;;;;;;;14.09;100.00;95275.88;5048285;27;105752;-81
2023/10/30 09:06:52;;;;;;;2.27;2.10;;;;;;;14.34;100.00;95271.91;5049103;27;101979;-81
2023/10/30 09:09:19;;;;;;;2.10;1.90;;;;;;;14.37;100.00;95271.28;5050427;27;102868;-81
2023/10/30 09:11:46;;;;;;;2.77;2.40;;;;;;;14.73;100.00;95264.06;5048316;27;105748;-81
2023/10/30 09:14:13;;;;;;;3.73;2.47;;;;;;;14.86;100.00;95258.66;5048912;27;102015;-81
2023/10/30 09:16:40;;;;;;;3.00;2.00;;;;;;;14.98;100.00;95255.44;5048528;27;105216;-81
2023/10/30 09:19:09;;;;;;;2.43;1.83;;;;;;;15.13;100.00;95253.16;5049401;27;102911;-81
2023/10/30 09:21:35;;;;;;;3.53;1.67;;;;;;;15.11;100.00;95259.91;5050090;27;101900;-81
2023/10/30 09:24:03;;;;;;;2.53;2.00;;;;;;;15.03;100.00;95268.66;5051509;27;105195;-81
2023/10/30 09:26:30;;;;;;;2.30;2.10;;;;;;;14.93;100.00;95258.22;5048999;27;101957;-80
2023/10/30 09:28:58;;;;;;;1.90;1.80;;;;;;;14.89;100.00;95254.56;5051392;27;105151;-80
2023/10/30 09:31:25;;;;;;;2.47;1.90;;;;;;;14.96;100.00;95242.34;5051676;27;105383;-80
2023/10/30 09:33:53;;;;;;;3.93;2.00;;;;;;;15.12;100.00;95248.91;5051951;27;101898;-82
2023/10/30 09:36:21;;;;;;;1.97;1.73;;;;;;;15.24;100.00;95237.63;5052158;27;105392;-80
2023/10/30 09:38:48;;;;;;;2.63;2.10;;;;;;;15.39;100.00;95239.94;5051519;27;105224;-80
2023/10/30 09:41:19;;;;;;;4.97;2.10;;;;;;;15.45;100.00;95238.72;5038840;27;102518;-81
2023/10/30 09:43:48;;;;;;;4.43;2.60;;;;;;;15.62;100.00;95233.41;5031048;27;105393;-82
2023/10/30 09:46:16;;;;;;;2.93;2.00;;;;;;;15.42;100.00;95233.97;5036515;28;102807;-81
2023/10/30 09:48:45;;;;;;;4.03;2.47;;;;;;;15.75;100.00;95221.81;5032872;28;103007;-81
2023/10/30 09:51:13;;;;;;;3.07;2.30;;;;;;;15.92;100.00;95213.81;5030898;28;105863;-82
2023/10/30 09:53:42;;;;;;;3.17;2.00;;;;;;;16.34;100.00;95223.81;5032290;28;101906;-81
2023/10/30 09:56:10;;;;;;;3.73;3.30;;;;;;;16.40;100.00;95220.72;5030923;27;106019;-81
2023/10/30 09:58:37;;;;;;;5.20;2.43;;;;;;;16.66;100.00;95221.50;5033184;28;102986;-83
2023/10/30 10:01:04;;;;;;;2.23;1.90;;;;;;;16.46;100.00;95211.41;5031849;28;102197;-84
2023/10/30 10:03:31;;;;;;;1.40;1.30;;;;;;;16.55;100.00;95206.03;5032088;28;105342;-81
2023/10/30 10:06:00;;;;;;;2.13;1.50;;;;;;;16.75;100.00;95186.63;5033487;28;102657;-84
2023/10/30 10:08:27;;;;;;;1.47;1.37;;;;;;;17.00;100.00;95191.16;5037106;27;101730;-81
2023/10/30 10:10:57;;;;;;;1.87;1.40;;;;;;;17.14;100.00;95181.00;5031637;28;105386;-87
2023/10/30 10:13:25;;;;;;;1.40;1.30;;;;;;;17.21;100.00;95182.09;5032326;28;101830;-87
2023/10/30 10:15:52;;;;;;;1.27;1.00;;;;;;;17.28;100.00;95174.31;5032315;28;105048;-88
2023/10/30 10:18:26;;;;;;;1.53;1.10;;;;;;;17.47;100.00;95172.09;5031591;28;105095;-87
2023/10/30 10:21:00;;;;;;;3.80;1.20;;;;;;;17.61;100.00;95172.63;5032250;28;101929;-88
2023/10/30 10:23:30;;;;;;;2.03;1.17;;;;;;;17.77;100.00;95160.22;5031759;28;104907;-87
2023/10/30 10:25:59;;;;;;;1.43;1.30;;;;;;;17.89;100.00;95162.22;5031898;27;104034;-88
2023/10/30 10:28:27;;;;;;;1.33;1.20;;;;;;;18.03;100.00;95152.03;5036167;28;101846;-88
2023/10/30 10:30:54;;;;;;;2.57;1.40;;;;;;;17.96;100.00;95159.81;5030892;28;104271;-88
2023/10/30 10:33:22;;;;;;;2.50;1.13;;;;;;;17.82;100.00;95151.19;5031065;28;102150;-88
2023/10/30 10:35:53;;;;;;;1.33;1.00;;;;;;;17.86;100.00;95131.41;5031140;28;105431;-88
2023/10/30 10:38:21;;;;;;;2.60;1.10;;;;;;;18.17;100.00;95126.44;5030378;27;105571;-88
2023/10/30 10:40:48;;;;;;;2.30;1.23;;;;;;;17.94;100.00;95119.78;5029667;28;101930;-88
2023/10/30 10:43:19;;;;;;;3.40;1.37;;;;;;;18.28;100.00;95119.53;5031071;28;105783;-88
2023/10/30 10:45:47;;;;;;;0.97;0.90;;;;;;;18.40;100.00;95108.06;5030247;28;104202;-88
2023/10/30 10:48:16;;;;;;;1.97;0.90;;;;;;;18.58;100.00;95104.13;5031311;28;102073;-88
2023/10/30 10:50:43;;;;;;;2.37;0.93;;;;;;;18.57;100.00;95102.53;5033593;28;105069;-88
2023/10/30 10:53:11;;;;;;;1.23;1.00;;;;;;;18.63;100.00;95095.84;5030808;28;101993;-87
2023/10/30 10:55:44;;;;;;;1.80;1.00;;;;;;;18.70;100.00;95091.47;5030353;27;105111;-87
2023/10/30 10:58:12;;;;;;;2.47;0.90;;;;;;;18.63;100.00;95079.69;5030291;28;104024;-87
2023/10/30 11:00:47;;;;;;;1.00;0.90;;;;;;;18.65;100.00;95075.50;5031374;28;101838;-88
2023/10/30 11:03:15;;;;;;;1.43;1.10;;;;;;;18.74;100.00;95076.22;5030465;28;104059;-87
2023/10/30 11:05:44;;;;;;;0.97;0.87;;;;;;;18.84;100.00;95080.38;5030158;28;105377;-87
2023/10/30 11:08:33;;;;;;;1.07;0.80;;;;;;;18.88;100.00;95073.22;5030486;28;101907;-87
2023/10/30 11:11:09;;;;;;;5.00;0.80;;;;;;;18.78;100.00;95063.69;5030481;28;105419;-87
2023/10/30 11:13:45;;;;;;;0.83;0.80;;;;;;;18.68;100.00;95068.69;5033360;28;105912;-87
2023/10/30 11:16:18;;;;;;;0.83;0.80;;;;;;;18.80;100.00;95068.72;5030243;28;105469;-87
2023/10/30 11:18:45;;;;;;;1.07;0.77;;;;;;;18.92;100.00;95071.44;5029776;28;105909;-87
2023/10/30 11:21:15;;;;;;;1.10;0.97;;;;;;;18.87;100.00;95058.19;5030325;28;102044;-87
2023/10/30 11:23:54;;;;;;;2.40;1.03;;;;;;;18.93;100.00;95052.25;5030505;28;103709;-87